Terminal Aerodrome Forecast
Issued by NWS

Home | Current Version | Previous Version | Text Only | Print | Product List | Glossary On
Versions: 1 2 3 4 5 6 7 8 9 10 11 12 13
000
FTPQ31 PGUM 230520
TAFGUM
TAF

TAF
PTYA 230520Z 2306/2406 10010KT P6SM -RA VCTS SCT014CB SCT040 BKN100
      TEMPO 2306/2310 07015KT 3SM +SHRA BKN014 OVC030
     FM231000 10008KT P6SM VCSH SCT016 SCT040 BKN120=

USA.gov is the U.S. government's official web portal to all federal, state and local government web resources and services.